createdAt,value
2022-11-17T00:00:42.541Z,7.99
2022-11-17T00:03:15.785Z,8.13
2022-11-17T00:05:44.656Z,9.18
2022-11-17T00:08:13.198Z,8.89
2022-11-17T00:10:41.080Z,9.43
2022-11-17T00:13:29.128Z,9.67
2022-11-17T00:15:57.095Z,8.86
2022-11-17T00:18:43.675Z,8.97
2022-11-17T00:21:21.450Z,9.06
2022-11-17T00:23:50.586Z,8.98
2022-11-17T00:26:24.783Z,8.56
2022-11-17T00:28:54.540Z,8.75
2022-11-17T00:31:42.303Z,8.53
2022-11-17T00:34:16.630Z,8.07
2022-11-17T00:36:47.062Z,8.45
2022-11-17T00:39:17.439Z,8.39
2022-11-17T00:41:45.894Z,8.37
2022-11-17T00:44:14.009Z,8.49
2022-11-17T00:46:43.152Z,9.14
2022-11-17T00:49:12.020Z,8.58
2022-11-17T00:51:40.090Z,8.32
2022-11-17T00:54:11.109Z,9.18
2022-11-17T00:56:39.893Z,9.07
2022-11-17T00:59:07.796Z,9.13
2022-11-17T01:01:36.102Z,8.88
2022-11-17T01:04:04.684Z,9.09
2022-11-17T01:06:35.846Z,9.02
2022-11-17T01:09:25.971Z,8.41
2022-11-17T01:11:54.099Z,8.66
2022-11-17T01:14:25.722Z,8.78
2022-11-17T01:16:54.804Z,8.54
2022-11-17T01:19:23.848Z,9.38
2022-11-17T01:21:51.732Z,9.45
2022-11-17T01:24:19.693Z,9.59
2022-11-17T01:26:47.848Z,9.42
2022-11-17T01:29:19.113Z,8.90
2022-11-17T01:31:50.733Z,8.68
2022-11-17T01:34:19.322Z,8.74
2022-11-17T01:37:06.039Z,9.27
2022-11-17T01:39:34.229Z,9.25
2022-11-17T01:42:05.061Z,9.22
2022-11-17T01:44:41.992Z,9.28
2022-11-17T01:47:30.502Z,9.60
2022-11-17T01:50:07.444Z,9.61
2022-11-17T01:52:38.521Z,10.39
2022-11-17T01:55:07.638Z,9.95
2022-11-17T01:57:45.464Z,9.63
2022-11-17T02:00:14.176Z,10.05
2022-11-17T02:02:43.747Z,9.55
2022-11-17T02:05:51.269Z,10.04
2022-11-17T02:08:23.125Z,10.36
2022-11-17T02:10:52.500Z,10.46
2022-11-17T02:13:22.156Z,10.41
2022-11-17T02:15:50.884Z,10.21
2022-11-17T02:18:19.475Z,10.58
2022-11-17T02:21:02.420Z,10.43
2022-11-17T02:24:22.969Z,10.33
2022-11-17T02:26:56.671Z,10.33
2022-11-17T02:29:38.796Z,10.57
2022-11-17T02:32:35.789Z,10.35
2022-11-17T02:35:12.333Z,10.37
2022-11-17T02:37:52.412Z,10.52
2022-11-17T02:40:31.588Z,11.00
2022-11-17T02:43:28.952Z,11.38
2022-11-17T02:46:08.915Z,10.92
2022-11-17T02:48:40.780Z,10.72
2022-11-17T02:51:16.229Z,10.90
2022-11-17T02:53:44.217Z,10.67
2022-11-17T02:56:12.118Z,11.53
2022-11-17T02:58:40.028Z,11.62
2022-11-17T03:01:17.035Z,12.94
2022-11-17T03:04:09.671Z,12.86
2022-11-17T03:07:15.325Z,13.93
2022-11-17T03:09:53.106Z,14.85
2022-11-17T03:12:33.146Z,15.70
2022-11-17T03:15:13.256Z,16.14
2022-11-17T03:17:53.057Z,16.15
2022-11-17T03:20:55.602Z,16.03
2022-11-17T03:23:55.403Z,15.82
2022-11-17T03:26:36.901Z,17.60
2022-11-17T03:29:09.086Z,17.65
2022-11-17T03:31:39.489Z,19.02
2022-11-17T03:34:14.182Z,18.74
2022-11-17T03:36:47.919Z,18.87
2022-11-17T03:39:17.249Z,18.75
2022-11-17T03:41:48.923Z,18.44
2022-11-17T03:44:21.365Z,17.79
2022-11-17T03:46:54.727Z,17.98
2022-11-17T03:49:45.329Z,18.23
2022-11-17T03:52:13.636Z,18.48
2022-11-17T03:54:41.979Z,18.63
2022-11-17T03:57:48.482Z,18.72
2022-11-17T04:00:19.137Z,18.83
2022-11-17T04:02:54.673Z,19.55
2022-11-17T04:05:22.785Z,23.47
2022-11-17T04:07:50.626Z,19.36
2022-11-17T04:10:25.129Z,19.53
2022-11-17T04:13:12.590Z,19.65
2022-11-17T04:15:59.462Z,18.64
2022-11-17T04:18:27.745Z,19.27
2022-11-17T04:20:57.582Z,18.00
2022-11-17T04:23:25.968Z,18.53
2022-11-17T04:26:14.640Z,18.50
2022-11-17T04:28:46.946Z,20.28
2022-11-17T04:31:23.593Z,20.04
2022-11-17T04:33:57.039Z,20.09
2022-11-17T04:36:29.999Z,20.04
2022-11-17T04:38:59.795Z,20.10
2022-11-17T04:41:48.274Z,20.82
2022-11-17T04:44:17.707Z,20.92
2022-11-17T04:46:46.787Z,22.20
2022-11-17T04:49:17.149Z,21.83
2022-11-17T04:51:45.916Z,22.42
2022-11-17T04:54:16.710Z,22.80
2022-11-17T04:56:45.314Z,23.54
2022-11-17T04:59:13.231Z,23.40
2022-11-17T05:01:41.535Z,23.34
2022-11-17T05:04:11.598Z,22.87
2022-11-17T05:06:42.693Z,23.60
2022-11-17T05:09:16.160Z,23.67
2022-11-17T05:12:02.554Z,23.64
2022-11-17T05:14:30.602Z,23.00
2022-11-17T05:17:10.961Z,22.50
2022-11-17T05:19:46.278Z,21.27
2022-11-17T05:22:36.482Z,20.43
2022-11-17T05:25:05.649Z,20.18
2022-11-17T05:27:34.628Z,19.96
2022-11-17T05:30:04.057Z,19.17
2022-11-17T05:32:32.734Z,19.29
2022-11-17T05:35:00.614Z,18.53
2022-11-17T05:37:28.538Z,18.33
2022-11-17T05:39:56.607Z,18.17
2022-11-17T05:42:24.573Z,18.26
2022-11-17T05:44:52.491Z,18.24
2022-11-17T05:47:20.710Z,17.93
2022-11-17T05:49:48.784Z,17.59
2022-11-17T05:52:16.664Z,19.52
2022-11-17T05:54:44.531Z,20.30
2022-11-17T05:57:17.257Z,20.20
2022-11-17T05:59:50.715Z,19.76
2022-11-17T06:02:24.793Z,19.32
2022-11-17T06:04:52.737Z,19.80
2022-11-17T06:07:20.990Z,19.72
2022-11-17T06:09:51.365Z,18.63
2022-11-17T06:12:19.316Z,17.99
2022-11-17T06:14:47.562Z,17.72
2022-11-17T06:17:30.831Z,17.11
2022-11-17T06:20:04.962Z,17.28
2022-11-17T06:22:34.406Z,17.90
2022-11-17T06:25:04.579Z,16.50
2022-11-17T06:27:33.596Z,16.53
2022-11-17T06:30:04.189Z,16.64
2022-11-17T06:32:36.377Z,17.71
2022-11-17T06:35:07.709Z,15.94
2022-11-17T06:37:35.968Z,17.21
2022-11-17T06:40:04.576Z,16.88
2022-11-17T06:42:50.950Z,16.80
2022-11-17T06:45:19.176Z,16.76
2022-11-17T06:47:47.269Z,16.75
2022-11-17T06:50:15.349Z,17.29
2022-11-17T06:52:43.302Z,17.44
2022-11-17T06:55:11.611Z,18.05
2022-11-17T06:57:39.611Z,16.49
2022-11-17T07:00:08.223Z,14.87
2022-11-17T07:02:37.732Z,14.69
2022-11-17T07:05:05.914Z,14.81
2022-11-17T07:07:34.084Z,14.54
2022-11-17T07:10:02.567Z,15.24
2022-11-17T07:12:30.527Z,15.79
2022-11-17T07:14:58.564Z,18.19
2022-11-17T07:17:26.581Z,19.89
2022-11-17T07:19:55.029Z,18.74
2022-11-17T07:22:22.996Z,19.06
2022-11-17T07:24:51.615Z,19.07
2022-11-17T07:27:19.601Z,15.85
2022-11-17T07:29:47.591Z,15.32
2022-11-17T07:32:15.599Z,15.38
2022-11-17T07:34:43.563Z,15.05
2022-11-17T07:37:11.763Z,15.79
2022-11-17T07:39:39.734Z,15.03
2022-11-17T07:42:07.738Z,14.11
2022-11-17T07:44:35.709Z,14.77
2022-11-17T07:47:04.798Z,15.30
2022-11-17T07:49:32.930Z,15.30
2022-11-17T07:52:01.257Z,15.04
2022-11-17T07:54:29.213Z,14.75
2022-11-17T07:56:57.191Z,15.40
2022-11-17T07:59:25.238Z,14.65
2022-11-17T08:01:53.175Z,16.14
2022-11-17T08:04:21.167Z,16.72
2022-11-17T08:06:49.150Z,18.58
2022-11-17T08:09:17.103Z,19.19
2022-11-17T08:11:45.087Z,18.46
2022-11-17T08:14:13.136Z,19.99
2022-11-17T08:16:41.180Z,20.00
2022-11-17T08:19:12.093Z,20.37
2022-11-17T08:21:41.385Z,19.84
2022-11-17T08:24:09.398Z,18.55
2022-11-17T08:26:37.384Z,18.65
2022-11-17T08:29:05.463Z,19.08
2022-11-17T08:31:33.403Z,18.78
2022-11-17T08:34:01.995Z,19.61
2022-11-17T08:36:30.013Z,25.35
2022-11-17T08:38:58.015Z,35.88
2022-11-17T08:41:26.621Z,20.66
2022-11-17T08:43:54.654Z,20.68
2022-11-17T08:46:22.665Z,22.79
2022-11-17T08:48:55.506Z,22.23
2022-11-17T08:51:27.247Z,22.21
2022-11-17T08:53:56.212Z,23.27
2022-11-17T08:56:24.183Z,26.89
2022-11-17T08:58:53.289Z,23.27
2022-11-17T09:01:21.297Z,23.22
2022-11-17T09:03:49.334Z,22.87
2022-11-17T09:06:18.043Z,22.64
2022-11-17T09:08:56.191Z,22.98
2022-11-17T09:11:24.463Z,22.98
2022-11-17T09:13:52.542Z,23.16
2022-11-17T09:16:20.697Z,23.72
2022-11-17T09:18:48.732Z,24.47
2022-11-17T09:21:17.121Z,35.31
2022-11-17T09:23:45.143Z,27.50
2022-11-17T09:26:15.178Z,23.93
2022-11-17T09:28:44.285Z,25.84
2022-11-17T09:31:22.796Z,20.93
2022-11-17T09:33:50.998Z,19.13
2022-11-17T09:36:19.188Z,21.62
2022-11-17T09:38:47.989Z,20.21
2022-11-17T09:41:15.836Z,20.33
2022-11-17T09:44:12.953Z,18.62
2022-11-17T09:47:02.507Z,18.16
2022-11-17T09:49:42.830Z,17.53
2022-11-17T09:52:43.461Z,17.80
2022-11-17T09:55:36.316Z,17.66
2022-11-17T09:58:13.447Z,18.07
2022-11-17T10:00:48.808Z,18.21
2022-11-17T10:03:20.771Z,18.78
2022-11-17T10:05:49.622Z,19.20
2022-11-17T10:08:29.376Z,19.13
2022-11-17T10:10:57.310Z,19.99
2022-11-17T10:13:28.335Z,20.23
2022-11-17T10:16:07.950Z,19.33
2022-11-17T10:18:38.358Z,20.15
2022-11-17T10:21:09.203Z,19.85
2022-11-17T10:23:46.222Z,20.31
2022-11-17T10:26:16.246Z,22.16
2022-11-17T10:28:44.289Z,23.39
2022-11-17T10:31:17.215Z,21.15
2022-11-17T10:33:50.441Z,21.31
2022-11-17T10:36:30.788Z,21.32
2022-11-17T10:39:00.632Z,20.41
2022-11-17T10:41:36.978Z,18.72
2022-11-17T10:44:24.610Z,17.51
2022-11-17T10:47:02.806Z,16.60
2022-11-17T10:49:34.790Z,17.50
2022-11-17T10:52:11.166Z,17.58
2022-11-17T10:54:39.607Z,18.96
2022-11-17T10:57:27.874Z,20.64
2022-11-17T10:59:59.860Z,21.93
2022-11-17T11:02:31.377Z,23.14
2022-11-17T11:05:10.541Z,23.18
2022-11-17T11:07:39.360Z,23.03
2022-11-17T11:10:25.623Z,20.59
2022-11-17T11:13:11.779Z,18.86
2022-11-17T11:15:39.915Z,19.07
2022-11-17T11:18:16.573Z,20.08
2022-11-17T11:21:07.378Z,22.47
2022-11-17T11:23:53.432Z,22.64
2022-11-17T11:26:58.773Z,20.97
2022-11-17T11:30:06.077Z,18.08
2022-11-17T11:33:01.834Z,17.86
2022-11-17T11:36:03.842Z,17.92
2022-11-17T11:38:49.093Z,18.06
2022-11-17T11:41:38.233Z,19.02
2022-11-17T11:44:27.565Z,18.38
2022-11-17T11:47:14.830Z,17.94
2022-11-17T11:49:46.155Z,17.57
2022-11-17T11:52:37.446Z,16.71
2022-11-17T11:55:29.165Z,17.87
2022-11-17T11:58:22.688Z,18.09
2022-11-17T12:00:55.642Z,17.69
2022-11-17T12:03:29.451Z,18.56
2022-11-17T12:06:40.907Z,19.91
2022-11-17T12:09:20.589Z,22.61
2022-11-17T12:12:02.899Z,23.49
2022-11-17T12:14:33.158Z,17.31
2022-11-17T12:17:13.294Z,16.06
2022-11-17T12:19:44.294Z,16.34
2022-11-17T12:22:40.230Z,14.75
2022-11-17T12:25:28.507Z,14.92
2022-11-17T12:27:56.903Z,15.46
2022-11-17T12:30:30.849Z,15.20
2022-11-17T12:33:04.760Z,14.33
2022-11-17T12:35:37.868Z,13.86
2022-11-17T12:38:15.392Z,14.10
2022-11-17T12:40:47.530Z,14.22
2022-11-17T12:43:15.487Z,15.06
2022-11-17T12:45:52.948Z,14.43
2022-11-17T12:48:33.987Z,14.00
2022-11-17T12:51:14.337Z,14.21
2022-11-17T12:53:51.654Z,14.16
2022-11-17T12:56:55.358Z,14.90
2022-11-17T12:59:38.829Z,14.59
2022-11-17T13:02:39.874Z,15.67
2022-11-17T13:05:28.684Z,14.39
2022-11-17T13:08:21.588Z,14.49
2022-11-17T13:10:50.973Z,14.68
2022-11-17T13:13:24.303Z,14.13
2022-11-17T13:15:56.246Z,14.38
2022-11-17T13:18:33.227Z,14.54
2022-11-17T13:21:02.608Z,14.62
2022-11-17T13:23:32.804Z,14.85
2022-11-17T13:26:16.121Z,14.65
2022-11-17T13:28:44.978Z,15.55
2022-11-17T13:31:21.436Z,15.16
2022-11-17T13:34:00.085Z,15.05
2022-11-17T13:36:28.081Z,14.74
2022-11-17T13:39:02.002Z,14.92
2022-11-17T13:41:37.800Z,15.40
2022-11-17T13:44:11.716Z,17.43
2022-11-17T13:46:40.136Z,17.45
2022-11-17T13:49:38.459Z,17.39
2022-11-17T13:52:38.009Z,16.26
2022-11-17T13:55:18.093Z,15.58
2022-11-17T13:57:56.549Z,15.06
2022-11-17T14:00:25.150Z,18.24
2022-11-17T14:02:54.833Z,19.01
2022-11-17T14:05:26.549Z,17.93
2022-11-17T14:07:57.234Z,16.84
2022-11-17T14:10:27.135Z,15.68
2022-11-17T14:13:00.952Z,15.01
2022-11-17T14:15:35.079Z,14.76
2022-11-17T14:18:25.960Z,14.43
2022-11-17T14:21:07.379Z,13.80
2022-11-17T14:23:43.756Z,14.68
2022-11-17T14:26:22.060Z,14.55
2022-11-17T14:28:51.920Z,16.34
2022-11-17T14:31:21.142Z,17.33
2022-11-17T14:33:50.627Z,18.24
2022-11-17T14:36:18.820Z,17.99
2022-11-17T14:38:47.157Z,17.64
2022-11-17T14:41:16.856Z,16.70
2022-11-17T14:43:45.694Z,15.93
2022-11-17T14:46:26.753Z,15.55
2022-11-17T14:48:55.809Z,15.49
2022-11-17T14:51:26.935Z,14.75
2022-11-17T14:54:04.699Z,14.64
2022-11-17T14:56:34.936Z,14.93
2022-11-17T14:59:03.319Z,15.21
2022-11-17T15:01:33.643Z,15.45
2022-11-17T15:04:27.006Z,15.61
2022-11-17T15:06:51.890Z,16.61
2022-11-17T15:09:20.846Z,16.32
2022-11-17T15:11:48.842Z,16.63
2022-11-17T15:14:17.146Z,16.83
2022-11-17T15:16:45.465Z,15.82
2022-11-17T15:19:13.487Z,16.11
2022-11-17T15:21:41.560Z,16.67
2022-11-17T15:24:09.518Z,17.04
2022-11-17T15:26:37.502Z,16.57
2022-11-17T15:29:05.544Z,16.69
2022-11-17T15:31:33.472Z,17.02
2022-11-17T15:34:01.368Z,17.21
2022-11-17T15:36:31.136Z,16.58
2022-11-17T15:38:59.922Z,16.06
2022-11-17T15:41:32.643Z,16.21
2022-11-17T15:44:01.244Z,16.22
2022-11-17T15:46:29.130Z,15.64
2022-11-17T15:48:57.091Z,15.72
2022-11-17T15:51:27.878Z,15.58
2022-11-17T15:53:58.023Z,16.27
2022-11-17T15:56:31.005Z,16.28
2022-11-17T15:59:05.077Z,15.96
2022-11-17T16:01:38.168Z,16.02
2022-11-17T16:04:11.247Z,16.22
2022-11-17T16:06:41.364Z,16.06
2022-11-17T16:09:10.182Z,16.67
2022-11-17T16:11:38.933Z,16.43
2022-11-17T16:14:06.999Z,17.20
2022-11-17T16:16:37.542Z,17.27
2022-11-17T16:19:06.545Z,17.31
2022-11-17T16:21:34.653Z,17.39
2022-11-17T16:24:03.330Z,17.60
2022-11-17T16:26:31.683Z,17.88
2022-11-17T16:29:02.184Z,18.44
2022-11-17T16:31:35.455Z,17.40
2022-11-17T16:34:12.140Z,18.33
2022-11-17T16:36:41.551Z,18.76
2022-11-17T16:39:13.199Z,22.58
2022-11-17T16:41:43.176Z,22.99
2022-11-17T16:44:16.040Z,22.01
2022-11-17T16:46:46.549Z,22.42
2022-11-17T16:49:17.236Z,22.62
2022-11-17T16:51:51.310Z,21.52
2022-11-17T16:54:20.472Z,21.05
2022-11-17T16:56:48.395Z,21.15
2022-11-17T16:59:16.788Z,20.19
2022-11-17T17:01:45.443Z,20.36
2022-11-17T17:04:13.648Z,19.07
2022-11-17T17:06:43.442Z,18.79
2022-11-17T17:09:14.548Z,19.17
2022-11-17T17:11:42.982Z,19.11
2022-11-17T17:14:13.802Z,19.49
2022-11-17T17:16:42.697Z,19.54
2022-11-17T17:19:12.279Z,20.29
2022-11-17T17:21:41.391Z,19.24
2022-11-17T17:24:10.464Z,19.65
2022-11-17T17:26:39.770Z,19.75
2022-11-17T17:29:08.498Z,19.23
2022-11-17T17:31:39.177Z,19.75
2022-11-17T17:34:08.205Z,18.96
2022-11-17T17:36:38.771Z,17.75
2022-11-17T17:39:08.064Z,18.54
2022-11-17T17:41:39.703Z,18.72
2022-11-17T17:44:08.561Z,19.05
2022-11-17T17:46:39.499Z,19.47
2022-11-17T17:49:07.409Z,18.61
2022-11-17T17:51:42.199Z,18.32
2022-11-17T17:54:15.853Z,18.40
2022-11-17T17:56:44.379Z,19.15
2022-11-17T17:59:13.844Z,19.98
2022-11-17T18:01:42.295Z,19.31
2022-11-17T18:04:15.501Z,19.53
2022-11-17T18:06:47.541Z,20.64
2022-11-17T18:09:19.043Z,20.48
2022-11-17T18:11:50.724Z,20.67
2022-11-17T18:14:24.002Z,21.30
2022-11-17T18:16:53.167Z,20.52
2022-11-17T18:19:21.118Z,20.49
2022-11-17T18:21:49.198Z,22.00
2022-11-17T18:24:17.150Z,23.84
2022-11-17T18:26:45.214Z,24.23
2022-11-17T18:29:18.466Z,23.74
2022-11-17T18:31:47.928Z,24.84
2022-11-17T18:34:20.627Z,27.66
2022-11-17T18:36:53.325Z,28.50
2022-11-17T18:39:22.048Z,23.41
2022-11-17T18:41:50.005Z,23.51
2022-11-17T18:44:19.644Z,21.84
2022-11-17T18:46:47.854Z,21.04
2022-11-17T18:49:16.178Z,21.02
2022-11-17T18:51:44.331Z,20.56
2022-11-17T18:54:12.944Z,20.87
2022-11-17T18:56:41.036Z,20.67
2022-11-17T18:59:12.218Z,20.94
2022-11-17T19:01:42.161Z,21.04
2022-11-17T19:04:13.560Z,21.64
2022-11-17T19:06:41.737Z,21.38
2022-11-17T19:09:10.135Z,28.32
2022-11-17T19:11:38.635Z,23.49
2022-11-17T19:14:06.687Z,24.91
2022-11-17T19:16:42.605Z,23.53
2022-11-17T19:19:13.813Z,23.08
2022-11-17T19:21:43.303Z,21.84
2022-11-17T19:24:11.776Z,21.49
2022-11-17T19:26:39.991Z,21.46
2022-11-17T19:29:16.235Z,21.85
2022-11-17T19:31:46.153Z,22.25
2022-11-17T19:34:15.081Z,23.33
2022-11-17T19:36:44.458Z,24.63
2022-11-17T19:39:13.975Z,24.00
2022-11-17T19:41:43.704Z,24.95
2022-11-17T19:44:11.710Z,25.53
2022-11-17T19:46:39.694Z,24.70
2022-11-17T19:49:08.718Z,24.37
2022-11-17T19:51:37.461Z,25.16
2022-11-17T19:54:09.563Z,25.20
2022-11-17T19:56:38.715Z,25.31
2022-11-17T19:59:10.985Z,25.74
2022-11-17T20:01:45.472Z,25.40
2022-11-17T20:04:13.927Z,24.47
2022-11-17T20:06:42.061Z,24.60
2022-11-17T20:09:12.903Z,25.67
2022-11-17T20:11:41.734Z,26.27
2022-11-17T20:14:09.673Z,25.35
2022-11-17T20:16:38.913Z,25.08
2022-11-17T20:19:08.799Z,29.29
2022-11-17T20:21:36.836Z,32.36
2022-11-17T20:24:04.849Z,38.00
2022-11-17T20:26:35.378Z,41.83
2022-11-17T20:29:03.294Z,42.32
2022-11-17T20:31:34.011Z,37.69
2022-11-17T20:34:04.447Z,34.30
2022-11-17T20:36:34.975Z,34.73
2022-11-17T20:39:05.350Z,33.65
2022-11-17T20:41:33.382Z,33.03
2022-11-17T20:44:03.290Z,32.31
2022-11-17T20:46:31.512Z,33.38
2022-11-17T20:48:59.447Z,29.85
2022-11-17T20:51:27.379Z,27.09
2022-11-17T20:53:55.245Z,26.96
2022-11-17T20:56:23.308Z,26.25
2022-11-17T20:58:51.255Z,26.73
2022-11-17T21:01:21.646Z,24.12
2022-11-17T21:03:50.291Z,23.08
2022-11-17T21:06:19.805Z,22.53
2022-11-17T21:08:47.789Z,23.77
2022-11-17T21:11:36.800Z,22.44
2022-11-17T21:14:06.614Z,22.13
2022-11-17T21:16:36.778Z,21.32
2022-11-17T21:19:05.280Z,20.80
2022-11-17T21:21:33.650Z,19.52
2022-11-17T21:24:01.703Z,19.48
2022-11-17T21:26:29.972Z,19.75
2022-11-17T21:29:03.223Z,20.21
2022-11-17T21:31:35.210Z,19.56
2022-11-17T21:34:06.299Z,19.44
2022-11-17T21:36:35.649Z,21.65
2022-11-17T21:39:04.388Z,23.45
2022-11-17T21:41:38.640Z,23.32
2022-11-17T21:44:06.615Z,25.13
2022-11-17T21:46:36.542Z,27.58
2022-11-17T21:49:04.608Z,30.60
2022-11-17T21:51:34.914Z,30.50
2022-11-17T21:54:05.341Z,30.66
2022-11-17T21:56:33.901Z,31.61
2022-11-17T21:59:04.605Z,31.46
2022-11-17T22:01:34.949Z,31.41
2022-11-17T22:04:03.313Z,30.17
2022-11-17T22:06:31.202Z,30.07
2022-11-17T22:09:00.132Z,29.80
2022-11-17T22:11:37.201Z,30.44
2022-11-17T22:14:12.625Z,32.47
2022-11-17T22:16:59.108Z,31.28
2022-11-17T22:19:29.423Z,30.90
2022-11-17T22:21:57.677Z,30.18
2022-11-17T22:24:25.652Z,30.08
2022-11-17T22:26:53.967Z,29.59
2022-11-17T22:29:22.536Z,28.81
2022-11-17T22:31:50.989Z,28.74
2022-11-17T22:34:18.973Z,29.58
2022-11-17T22:36:46.990Z,29.18
2022-11-17T22:39:16.118Z,29.91
2022-11-17T22:41:44.170Z,31.00
2022-11-17T22:44:13.906Z,30.21
2022-11-17T22:46:45.872Z,30.09
2022-11-17T22:49:13.981Z,29.91
2022-11-17T22:52:00.549Z,30.79
2022-11-17T22:54:28.577Z,31.01
2022-11-17T22:56:57.655Z,31.10
2022-11-17T22:59:27.314Z,29.74
2022-11-17T23:01:55.615Z,30.36
2022-11-17T23:04:23.549Z,30.13
2022-11-17T23:06:51.615Z,29.12
2022-11-17T23:09:19.703Z,28.56
2022-11-17T23:11:47.868Z,27.99
2022-11-17T23:14:15.881Z,26.73
2022-11-17T23:16:43.864Z,26.91
2022-11-17T23:19:13.540Z,27.39
2022-11-17T23:21:41.979Z,26.88
2022-11-17T23:24:12.827Z,26.80
2022-11-17T23:26:42.350Z,27.40
2022-11-17T23:29:10.383Z,26.51
2022-11-17T23:31:38.357Z,27.22
2022-11-17T23:34:10.128Z,26.83
2022-11-17T23:36:38.093Z,26.15
2022-11-17T23:39:05.998Z,26.90
2022-11-17T23:41:34.049Z,27.06
2022-11-17T23:44:02.030Z,26.92
2022-11-17T23:46:29.931Z,27.57
2022-11-17T23:48:58.235Z,26.74
2022-11-17T23:51:26.798Z,27.87
2022-11-17T23:53:54.941Z,26.66
2022-11-17T23:56:23.488Z,26.07
2022-11-17T23:58:52.062Z,25.17
